Time;durP1;ratioP1;P1;durP2;ratioP2;P2;SDS_P1;SDS_P2;PMS_P1;PMS_P2;Temp;Humidity;BMP_temperature;BMP_pressure;BME280_temperature;BME280_humidity;BME280_pressure;Samples;Min_cycle;Max_cycle;Signal;HPM_P1;HPM_P2
2021/12/10 00:00:34;;;;;;;8.38;1.83;;;-2.50;99.90;;;;;;2090332;28;20316;-67
2021/12/10 00:01:47;;;;;;;2.53;1.50;;;-2.50;99.90;;;;;;2090686;28;20181;-68
2021/12/10 00:02:49;;;;;;;5.18;2.20;;;-2.60;99.90;;;;;;2091042;28;20179;-68
2021/12/10 00:03:54;;;;;;;9.65;2.67;;;-2.60;99.90;;;;;;2091056;28;20184;-68
2021/12/10 00:04:55;;;;;;;5.65;2.85;;;-2.60;99.90;;;;;;2090445;28;20178;-68
2021/12/10 00:06:07;;;;;;;6.93;3.00;;;-2.70;99.90;;;;;;2090334;28;20182;-69
2021/12/10 00:07:16;;;;;;;4.57;2.40;;;-2.70;99.90;;;;;;2090323;28;20174;-68
2021/12/10 00:08:19;;;;;;;6.30;2.78;;;-2.70;99.90;;;;;;2090740;28;20173;-68
2021/12/10 00:09:35;;;;;;;3.95;1.90;;;-2.80;99.90;;;;;;2089925;28;20221;-68
2021/12/10 00:10:41;;;;;;;10.10;2.10;;;-2.80;99.90;;;;;;2083408;28;20195;-68
2021/12/10 00:11:55;;;;;;;5.07;1.75;;;-2.80;99.90;;;;;;2089719;28;20167;-68
2021/12/10 00:12:57;;;;;;;4.75;1.60;;;-2.80;99.90;;;;;;2090360;28;20166;-68
2021/12/10 00:13:58;;;;;;;4.43;1.77;;;-2.80;99.90;;;;;;2090706;28;20646;-68
2021/12/10 00:14:59;;;;;;;4.72;1.70;;;-2.80;99.90;;;;;;2090414;28;20187;-68
2021/12/10 00:16:00;;;;;;;6.10;1.73;;;-2.80;99.90;;;;;;2090246;28;20186;-68
2021/12/10 00:17:05;;;;;;;5.90;1.90;;;-2.80;99.90;;;;;;2090934;28;20693;-68
2021/12/10 00:18:09;;;;;;;7.75;1.48;;;-2.80;99.90;;;;;;2091046;28;20159;-68
2021/12/10 00:20:23;;;;;;;3.97;1.42;;;-2.80;99.90;;;;;;2090277;28;20192;-68
2021/12/10 00:21:26;;;;;;;6.18;1.33;;;-2.80;99.90;;;;;;2083336;28;20669;-68
2021/12/10 00:22:45;;;;;;;3.10;1.20;;;-2.80;99.90;;;;;;2082357;28;20195;-68
2021/12/10 00:23:50;;;;;;;3.70;1.45;;;-2.70;99.90;;;;;;2084673;28;20640;-71
2021/12/10 00:24:53;;;;;;;2.08;1.35;;;-2.70;99.90;;;;;;2089978;28;20187;-68
2021/12/10 00:25:55;;;;;;;4.20;1.42;;;-2.70;99.90;;;;;;2090286;28;20255;-72
2021/12/10 00:26:59;;;;;;;7.22;2.20;;;-2.70;99.90;;;;;;2090265;28;20659;-69
2021/12/10 00:28:13;;;;;;;4.53;1.50;;;-2.70;99.90;;;;;;2090139;28;20226;-68
2021/12/10 00:29:15;;;;;;;6.57;1.83;;;-2.70;99.90;;;;;;2090445;28;20615;-68
2021/12/10 00:30:25;;;;;;;6.00;1.20;;;-2.70;99.90;;;;;;2090729;28;20213;-68
2021/12/10 00:32:48;;;;;;;3.53;1.30;;;-2.70;99.90;;;;;;2090408;28;20267;-68
2021/12/10 00:33:57;;;;;;;1.52;1.00;;;-2.70;99.90;;;;;;2090979;28;20188;-68
2021/12/10 00:34:59;;;;;;;1.75;1.05;;;-2.70;99.90;;;;;;2090228;28;20168;-68
2021/12/10 00:36:00;;;;;;;2.78;0.95;;;-2.70;99.90;;;;;;2090134;28;20191;-68
2021/12/10 00:37:07;;;;;;;1.93;0.90;;;-2.70;99.90;;;;;;2090070;28;20939;-68
2021/12/10 00:38:10;;;;;;;3.75;1.20;;;-2.70;99.90;;;;;;2082949;28;20650;-69
2021/12/10 00:39:21;;;;;;;1.30;0.90;;;-2.70;99.90;;;;;;2090297;28;20227;-68
2021/12/10 00:40:25;;;;;;;3.28;1.23;;;-2.80;99.90;;;;;;2098310;28;20647;-68
2021/12/10 00:41:25;;;;;;;3.55;1.45;;;-2.80;99.90;;;;;;2098138;28;20186;-68
2021/12/10 00:42:33;;;;;;;6.63;1.50;;;-2.80;99.90;;;;;;2090222;28;20261;-68
2021/12/10 00:43:35;;;;;;;3.63;1.58;;;-2.80;99.90;;;;;;2074675;28;20660;-68
2021/12/10 00:44:36;;;;;;;2.10;1.15;;;-2.80;99.90;;;;;;2074203;28;20675;-68
2021/12/10 00:45:37;;;;;;;2.72;1.80;;;-2.90;99.90;;;;;;2082000;28;20249;-69
2021/12/10 00:46:39;;;;;;;4.97;1.55;;;-3.00;99.90;;;;;;2090023;28;20657;-69
2021/12/10 00:47:39;;;;;;;2.33;1.42;;;-3.10;99.90;;;;;;2090662;28;20751;-69
2021/12/10 00:48:40;;;;;;;5.13;1.67;;;-3.20;99.90;;;;;;2090831;28;20187;-69
2021/12/10 00:49:41;;;;;;;7.97;1.73;;;-3.20;99.90;;;;;;2090721;28;20239;-68
2021/12/10 00:50:48;;;;;;;3.03;1.25;;;-3.20;99.90;;;;;;2089872;28;20209;-68
2021/12/10 00:51:50;;;;;;;2.67;1.20;;;-3.20;99.90;;;;;;2090147;28;20182;-68
2021/12/10 00:52:53;;;;;;;2.63;1.30;;;-3.20;99.90;;;;;;2090750;28;20183;-69
2021/12/10 00:53:54;;;;;;;5.13;1.70;;;-3.10;99.90;;;;;;2090914;28;20182;-69
2021/12/10 00:54:55;;;;;;;4.30;1.70;;;-3.10;99.90;;;;;;2090130;28;20212;-68
2021/12/10 00:55:56;;;;;;;2.87;1.73;;;-3.00;99.90;;;;;;2090137;28;20230;-68
2021/12/10 00:56:57;;;;;;;3.10;1.43;;;-3.00;99.90;;;;;;2090092;28;20191;-68
2021/12/10 00:57:59;;;;;;;8.63;1.55;;;-3.00;99.90;;;;;;2081939;28;20318;-68
2021/12/10 00:59:01;;;;;;;1.70;1.15;;;-3.00;99.90;;;;;;2082113;28;20672;-68
2021/12/10 01:00:17;;;;;;;2.53;1.15;;;-3.00;99.90;;;;;;2089973;28;20260;-68
2021/12/10 01:01:24;;;;;;;4.47;1.30;;;-3.00;99.90;;;;;;2090203;28;20197;-68
2021/12/10 01:02:26;;;;;;;2.88;1.30;;;-2.90;99.90;;;;;;2090178;28;20661;-68
2021/12/10 01:03:35;;;;;;;6.00;1.20;;;-3.00;99.90;;;;;;2090554;28;20198;-69
2021/12/10 01:04:40;;;;;;;3.15;1.17;;;-3.00;99.90;;;;;;2090155;28;20237;-68
2021/12/10 01:05:46;;;;;;;2.72;1.23;;;-3.00;99.90;;;;;;2074134;28;20183;-68
2021/12/10 01:06:50;;;;;;;4.13;1.83;;;-3.00;99.90;;;;;;2082310;28;20175;-68
2021/12/10 01:07:51;;;;;;;2.83;0.93;;;-3.10;99.90;;;;;;2089910;28;20206;-69
2021/12/10 01:08:58;;;;;;;4.70;1.25;;;-3.10;99.90;;;;;;2081853;28;20242;-68
2021/12/10 01:10:08;;;;;;;5.05;1.20;;;-3.10;99.90;;;;;;2089954;28;20206;-68
2021/12/10 01:11:30;;;;;;;1.48;1.10;;;-3.10;99.90;;;;;;2090152;28;20714;-68
2021/12/10 01:12:40;;;;;;;3.35;1.10;;;-3.10;99.90;;;;;;2084382;28;20168;-68
2021/12/10 01:13:47;;;;;;;3.83;1.02;;;-3.10;99.90;;;;;;2088110;28;20181;-69
2021/12/10 01:15:32;;;;;;;4.60;1.38;;;-3.10;99.90;;;;;;2090554;28;20166;-69
2021/12/10 01:23:48;;;;;;;12.55;3.53;;;-3.40;99.90;;;;;;2090712;28;20164;-68
2021/12/10 01:24:53;;;;;;;8.80;3.08;;;-3.40;99.90;;;;;;2090371;28;20179;-68
2021/12/10 01:27:24;;;;;;;19.45;3.97;;;-3.40;99.90;;;;;;2090875;28;20192;-68
2021/12/10 01:28:25;;;;;;;7.35;3.08;;;-3.40;99.90;;;;;;2090343;28;20156;-69
2021/12/10 01:29:38;;;;;;;15.50;3.23;;;-3.40;99.90;;;;;;2090599;28;20180;-68
2021/12/10 01:30:41;;;;;;;4.18;2.80;;;-3.30;99.90;;;;;;2090319;28;20292;-69
2021/12/10 01:31:43;;;;;;;6.13;3.10;;;-3.40;99.90;;;;;;2090589;28;20187;-68
2021/12/10 01:32:59;;;;;;;4.28;2.92;;;-3.40;99.90;;;;;;2090452;28;20658;-68
2021/12/10 01:34:00;;;;;;;5.85;2.70;;;-3.40;99.90;;;;;;2089963;28;20173;-68
2021/12/10 01:35:00;;;;;;;7.40;2.92;;;-3.40;99.90;;;;;;2090070;28;20169;-68
2021/12/10 01:36:07;;;;;;;6.37;3.43;;;-3.40;99.90;;;;;;2090446;28;20625;-68
2021/12/10 01:37:10;;;;;;;4.22;2.60;;;-3.40;99.90;;;;;;2090378;28;20179;-68
2021/12/10 01:38:13;;;;;;;6.85;3.38;;;-3.40;99.90;;;;;;2089812;28;20635;-68
2021/12/10 01:39:20;;;;;;;4.95;3.00;;;-3.40;99.90;;;;;;2089767;28;20227;-68
2021/12/10 01:40:24;;;;;;;6.10;3.58;;;-3.50;99.90;;;;;;2089781;28;20182;-68
2021/12/10 01:41:32;;;;;;;4.00;2.45;;;-3.40;99.90;;;;;;2089866;28;20250;-68
2021/12/10 01:42:42;;;;;;;5.82;3.45;;;-3.40;99.90;;;;;;2090564;28;20869;-68
2021/12/10 01:43:45;;;;;;;4.93;3.20;;;-3.40;99.90;;;;;;2089780;28;20181;-68
2021/12/10 01:44:52;;;;;;;7.53;3.65;;;-3.40;99.90;;;;;;2089841;28;20182;-68
2021/12/10 01:46:05;;;;;;;16.88;3.53;;;-3.40;99.90;;;;;;2089775;28;20219;-68
2021/12/10 01:47:07;;;;;;;7.43;3.72;;;-3.40;99.90;;;;;;2090157;28;20169;-68
2021/12/10 01:48:12;;;;;;;4.45;2.72;;;-3.40;99.90;;;;;;2090370;28;20177;-69
2021/12/10 01:49:14;;;;;;;8.43;3.53;;;-3.40;99.90;;;;;;2090380;28;20682;-67
2021/12/10 01:50:15;;;;;;;13.30;3.15;;;-3.40;99.90;;;;;;2090094;28;20204;-68
2021/12/10 01:51:23;;;;;;;6.82;3.50;;;-3.40;99.90;;;;;;2090317;28;20181;-69
2021/12/10 01:52:25;;;;;;;10.02;3.00;;;-3.40;99.90;;;;;;2090187;28;20170;-69
2021/12/10 01:53:30;;;;;;;4.63;3.00;;;-3.40;99.90;;;;;;2089736;28;20266;-68
2021/12/10 01:54:41;;;;;;;9.57;3.88;;;-3.40;99.90;;;;;;2081829;28;20177;-68
2021/12/10 01:55:49;;;;;;;6.75;3.47;;;-3.40;99.90;;;;;;2082819;28;20194;-68
2021/12/10 01:56:56;;;;;;;5.82;3.40;;;-3.30;99.90;;;;;;2089712;28;20183;-68
2021/12/10 01:57:58;;;;;;;8.93;3.83;;;-3.30;99.90;;;;;;2090289;28;20218;-68
2021/12/10 01:59:01;;;;;;;7.90;3.55;;;-3.30;99.90;;;;;;2089625;28;20176;-69
2021/12/10 02:00:08;;;;;;;8.30;3.65;;;-3.30;99.90;;;;;;2081657;28;20184;-68
2021/12/10 02:01:18;;;;;;;8.35;3.88;;;-3.30;99.90;;;;;;2089944;28;20175;-68
2021/12/10 02:02:34;;;;;;;6.40;3.53;;;-3.20;99.90;;;;;;2089544;28;20177;-69
2021/12/10 02:03:35;;;;;;;5.38;3.42;;;-3.20;99.90;;;;;;2083398;28;20162;-68
2021/12/10 02:04:39;;;;;;;12.40;3.75;;;-3.20;99.90;;;;;;2081880;28;20185;-68
2021/12/10 02:05:40;;;;;;;9.80;3.72;;;-3.20;99.90;;;;;;2089598;28;20187;-68
2021/12/10 02:06:41;;;;;;;10.23;3.83;;;-3.20;99.90;;;;;;2089959;28;20742;-68
2021/12/10 02:07:42;;;;;;;7.30;4.17;;;-3.20;99.90;;;;;;2089626;28;20217;-68
2021/12/10 02:08:44;;;;;;;8.27;3.63;;;-3.10;99.90;;;;;;2089645;28;20702;-69
2021/12/10 02:09:45;;;;;;;8.30;4.35;;;-3.10;99.90;;;;;;2089559;28;20184;-69
2021/12/10 02:10:45;;;;;;;6.47;3.65;;;-3.10;99.90;;;;;;2089328;28;20203;-69
2021/12/10 02:11:48;;;;;;;8.57;3.73;;;-3.10;99.90;;;;;;2090154;28;20191;-68
2021/12/10 02:12:49;;;;;;;7.47;4.00;;;-3.10;99.90;;;;;;2090144;28;20189;-69
2021/12/10 02:13:50;;;;;;;8.07;3.42;;;-3.00;99.90;;;;;;2089793;28;20266;-69
2021/12/10 02:15:00;;;;;;;9.53;3.67;;;-3.10;99.90;;;;;;2089556;28;20186;-68
2021/12/10 02:16:02;;;;;;;13.73;3.83;;;-3.10;99.90;;;;;;2089546;28;20160;-68
2021/12/10 02:17:04;;;;;;;11.02;4.75;;;-3.00;99.90;;;;;;2082277;28;20182;-69
2021/12/10 02:18:06;;;;;;;7.55;3.78;;;-3.00;99.90;;;;;;2089063;28;20184;-68
2021/12/10 02:19:10;;;;;;;6.57;3.47;;;-3.00;99.90;;;;;;2089437;28;20195;-68
2021/12/10 02:20:19;;;;;;;10.13;4.15;;;-3.00;99.90;;;;;;2089505;28;20183;-68
2021/12/10 02:21:26;;;;;;;9.68;3.88;;;-3.00;99.90;;;;;;2088964;28;20195;-68
2021/12/10 02:22:26;;;;;;;8.95;3.85;;;-3.00;99.90;;;;;;2089639;28;20187;-69
2021/12/10 02:23:29;;;;;;;11.10;3.90;;;-3.00;99.90;;;;;;2089482;28;20234;-69
2021/12/10 02:24:30;;;;;;;8.18;3.92;;;-3.00;99.90;;;;;;2089607;28;20169;-68
2021/12/10 02:25:32;;;;;;;5.93;3.43;;;-2.90;99.90;;;;;;2089396;28;20183;-70
2021/12/10 02:26:40;;;;;;;7.10;3.60;;;-3.00;99.90;;;;;;2089469;28;20220;-68
2021/12/10 02:27:41;;;;;;;6.10;3.92;;;-2.90;99.90;;;;;;2089615;28;20213;-68
2021/12/10 02:28:43;;;;;;;5.40;3.30;;;-2.90;99.90;;;;;;2089453;28;20185;-69
2021/12/10 02:29:43;;;;;;;5.32;3.28;;;-2.90;99.90;;;;;;2081472;28;20192;-68
2021/12/10 02:30:45;;;;;;;10.40;3.77;;;-2.90;99.90;;;;;;2089155;28;20706;-68
2021/12/10 02:31:47;;;;;;;7.20;3.90;;;-2.90;99.90;;;;;;2090075;28;20189;-68
2021/12/10 02:32:48;;;;;;;5.97;3.67;;;-2.90;99.90;;;;;;2081114;28;20221;-68
2021/12/10 02:33:49;;;;;;;7.80;4.00;;;-2.90;99.90;;;;;;2081034;28;20175;-68
2021/12/10 02:34:50;;;;;;;7.03;3.80;;;-2.90;99.90;;;;;;2089454;28;20714;-69
2021/12/10 02:35:51;;;;;;;6.30;3.45;;;-2.90;99.90;;;;;;2089197;28;20178;-69
2021/12/10 02:36:53;;;;;;;6.53;3.53;;;-2.80;99.90;;;;;;2089916;28;20187;-69
2021/12/10 02:37:54;;;;;;;9.43;3.92;;;-2.80;99.90;;;;;;2089783;28;20192;-68
2021/12/10 02:38:56;;;;;;;11.15;3.95;;;-2.80;99.90;;;;;;2089225;28;20265;-68
2021/12/10 02:39:57;;;;;;;9.32;3.55;;;-2.80;99.90;;;;;;2081039;28;20211;-68
2021/12/10 02:40:57;;;;;;;9.20;3.83;;;-2.80;99.90;;;;;;2089400;28;20193;-68
2021/12/10 02:41:58;;;;;;;7.10;3.73;;;-2.80;99.90;;;;;;2089289;28;20175;-69
2021/12/10 02:43:07;;;;;;;5.67;3.67;;;-2.80;99.90;;;;;;2081220;28;20179;-69
2021/12/10 02:44:12;;;;;;;9.07;4.13;;;-2.80;99.90;;;;;;2082057;28;20172;-69
2021/12/10 02:45:16;;;;;;;5.90;3.50;;;-2.80;99.90;;;;;;2081761;28;20165;-68
2021/12/10 02:46:16;;;;;;;6.30;3.88;;;-2.80;99.90;;;;;;2089293;28;20172;-69
2021/12/10 02:47:20;;;;;;;6.30;3.70;;;-2.80;99.90;;;;;;2089304;28;20516;-69
2021/12/10 02:48:21;;;;;;;10.85;4.40;;;-2.80;99.90;;;;;;2081324;28;20675;-68
2021/12/10 02:49:22;;;;;;;6.30;3.47;;;-2.80;99.90;;;;;;2089256;28;20301;-68
2021/12/10 02:50:28;;;;;;;9.88;4.10;;;-2.80;99.90;;;;;;2089034;28;20627;-69
2021/12/10 02:51:29;;;;;;;9.40;3.92;;;-2.80;99.90;;;;;;2089410;28;20183;-69
2021/12/10 02:52:30;;;;;;;7.13;3.97;;;-2.80;99.90;;;;;;2089173;28;20171;-69
2021/12/10 02:53:35;;;;;;;6.57;4.27;;;-2.80;99.90;;;;;;2081330;28;20422;-68
2021/12/10 02:54:37;;;;;;;8.43;4.18;;;-2.80;99.90;;;;;;2081477;28;20220;-69
2021/12/10 02:55:38;;;;;;;6.03;3.85;;;-2.70;99.90;;;;;;2089426;28;20180;-68
2021/12/10 02:56:39;;;;;;;9.15;3.78;;;-2.70;99.90;;;;;;2089073;28;20174;-68
2021/12/10 02:57:47;;;;;;;9.13;4.72;;;-2.70;99.90;;;;;;2080948;28;20683;-68
2021/12/10 02:58:55;;;;;;;10.88;4.30;;;-2.80;99.90;;;;;;2081805;28;20195;-69
2021/12/10 02:59:56;;;;;;;8.55;4.78;;;-2.70;99.90;;;;;;2089122;28;20178;-69
2021/12/10 03:01:26;;;;;;;8.90;4.50;;;-2.70;99.90;;;;;;2089689;28;20672;-69
2021/12/10 03:02:27;;;;;;;7.03;4.40;;;-2.70;99.90;;;;;;2089319;28;20168;-69
2021/12/10 03:03:28;;;;;;;9.00;4.20;;;-2.70;99.90;;;;;;2089108;28;20179;-69
2021/12/10 03:04:31;;;;;;;8.43;4.50;;;-2.60;99.90;;;;;;2089878;28;20170;-69
2021/12/10 03:05:32;;;;;;;10.18;4.00;;;-2.60;99.90;;;;;;2089792;28;20169;-69
2021/12/10 03:06:34;;;;;;;7.53;4.40;;;-2.60;99.90;;;;;;2089536;28;20195;-68
2021/12/10 03:07:36;;;;;;;9.45;4.40;;;-2.60;99.90;;;;;;2089613;28;20317;-69
2021/12/10 03:08:41;;;;;;;7.10;4.28;;;-2.60;99.90;;;;;;2089086;28;20246;-69
2021/12/10 03:09:47;;;;;;;11.95;4.65;;;-2.60;99.90;;;;;;2089293;28;20721;-68
2021/12/10 03:10:49;;;;;;;7.25;4.28;;;-2.60;99.90;;;;;;2088874;28;20216;-69
2021/12/10 03:11:52;;;;;;;9.43;4.55;;;-2.60;99.90;;;;;;2072703;28;20276;-69
2021/12/10 03:12:53;;;;;;;10.30;4.65;;;-2.60;99.90;;;;;;2081220;28;20660;-68
2021/12/10 03:13:55;;;;;;;8.20;3.90;;;-2.60;99.90;;;;;;2089725;28;20184;-69
2021/12/10 03:14:56;;;;;;;8.48;4.28;;;-2.60;99.90;;;;;;2089720;28;20776;-69
2021/12/10 03:15:57;;;;;;;6.22;3.90;;;-2.60;99.90;;;;;;2088948;28;20186;-68
2021/12/10 03:17:06;;;;;;;10.20;5.00;;;-2.60;99.90;;;;;;2080627;28;20343;-69
2021/12/10 03:18:12;;;;;;;10.02;4.45;;;-2.60;99.90;;;;;;2089463;28;20159;-68
2021/12/10 03:19:13;;;;;;;8.88;4.60;;;-2.60;99.90;;;;;;2089086;28;20178;-69
2021/12/10 03:20:18;;;;;;;6.07;3.92;;;-2.60;99.90;;;;;;2089239;28;20195;-68
2021/12/10 03:21:19;;;;;;;8.23;3.70;;;-2.60;99.90;;;;;;2088851;28;20263;-69
2021/12/10 03:22:20;;;;;;;5.65;3.60;;;-2.60;99.90;;;;;;2089268;28;20192;-68
2021/12/10 03:23:21;;;;;;;7.75;3.80;;;-2.60;99.90;;;;;;2089049;28;20175;-69
2021/12/10 03:24:27;;;;;;;6.27;4.03;;;-2.60;99.90;;;;;;2089783;28;20241;-69
2021/12/10 03:25:28;;;;;;;9.57;4.50;;;-2.70;99.90;;;;;;2089278;28;20170;-69
2021/12/10 03:26:28;;;;;;;7.72;4.00;;;-2.70;99.90;;;;;;2089113;28;20183;-68
2021/12/10 03:27:29;;;;;;;7.53;4.20;;;-2.70;99.90;;;;;;2089412;28;20236;-69
2021/12/10 03:28:30;;;;;;;7.27;4.33;;;-2.70;99.90;;;;;;2089039;28;20204;-69
2021/12/10 03:29:36;;;;;;;8.07;3.77;;;-2.70;99.90;;;;;;2088805;28;20177;-69
2021/12/10 03:30:43;;;;;;;7.90;3.85;;;-2.70;99.90;;;;;;2089526;28;20199;-69
2021/12/10 03:31:44;;;;;;;6.45;3.58;;;-2.70;99.90;;;;;;2083581;28;20240;-69
2021/12/10 03:32:45;;;;;;;6.03;3.53;;;-2.70;99.90;;;;;;2082663;28;20588;-69
2021/12/10 03:33:47;;;;;;;7.30;4.25;;;-2.70;99.90;;;;;;2089264;28;20183;-68
2021/12/10 03:34:50;;;;;;;9.40;4.18;;;-2.70;99.90;;;;;;2089308;28;20182;-68
2021/12/10 03:35:51;;;;;;;9.05;4.20;;;-2.70;99.90;;;;;;2081056;28;20198;-68
2021/12/10 03:36:53;;;;;;;7.83;4.37;;;-2.70;99.90;;;;;;2080847;28;20179;-69
2021/12/10 03:37:58;;;;;;;8.70;4.28;;;-2.70;99.90;;;;;;2081001;28;20236;-68
2021/12/10 03:39:00;;;;;;;6.68;4.53;;;-2.70;99.90;;;;;;2089119;28;20634;-69
2021/12/10 03:40:00;;;;;;;7.32;4.35;;;-2.70;99.90;;;;;;2089055;28;20187;-68
2021/12/10 03:41:02;;;;;;;9.03;4.57;;;-2.70;99.90;;;;;;2089064;28;20546;-68
2021/12/10 03:42:05;;;;;;;8.77;4.28;;;-2.70;99.90;;;;;;2089617;28;20178;-69
2021/12/10 03:43:08;;;;;;;7.18;4.13;;;-2.70;99.90;;;;;;2089041;28;20182;-68
2021/12/10 03:44:09;;;;;;;9.20;3.80;;;-2.70;99.90;;;;;;2088972;28;20179;-68
2021/12/10 03:45:13;;;;;;;9.57;4.43;;;-2.70;99.90;;;;;;2089592;28;20192;-69
2021/12/10 03:46:15;;;;;;;8.20;4.22;;;-2.70;99.90;;;;;;2088926;28;20185;-68
2021/12/10 03:47:16;;;;;;;7.18;3.90;;;-2.70;99.90;;;;;;2088997;28;20178;-69
2021/12/10 03:48:28;;;;;;;7.20;4.50;;;-2.70;99.90;;;;;;2088836;28;20230;-69
2021/12/10 03:49:29;;;;;;;6.97;4.15;;;-2.70;99.90;;;;;;2089732;28;20166;-68
2021/12/10 03:50:32;;;;;;;5.45;4.22;;;-2.70;99.90;;;;;;2089420;28;20577;-68
2021/12/10 03:51:35;;;;;;;8.07;4.80;;;-2.70;99.90;;;;;;2089733;28;20560;-68
2021/12/10 03:52:36;;;;;;;9.23;4.15;;;-2.70;99.90;;;;;;2089603;28;20195;-68
2021/12/10 03:53:37;;;;;;;7.90;3.60;;;-2.70;99.90;;;;;;2089702;28;20714;-68
2021/12/10 03:54:39;;;;;;;8.65;4.28;;;-2.70;99.90;;;;;;2089015;28;20421;-69
2021/12/10 03:55:41;;;;;;;7.03;4.30;;;-2.70;99.90;;;;;;2088595;28;20186;-68
2021/12/10 03:56:43;;;;;;;7.70;4.15;;;-2.70;99.90;;;;;;2088918;28;20175;-69
2021/12/10 03:57:43;;;;;;;9.23;4.53;;;-2.70;99.90;;;;;;2088991;28;20199;-69
2021/12/10 03:58:45;;;;;;;9.70;5.07;;;-2.70;99.90;;;;;;2089376;28;20182;-68
2021/12/10 03:59:46;;;;;;;7.35;4.55;;;-2.70;99.90;;;;;;2089525;28;20182;-69
2021/12/10 04:00:51;;;;;;;7.60;4.17;;;-2.70;99.90;;;;;;2089255;28;20237;-69
2021/12/10 04:01:55;;;;;;;9.02;4.72;;;-2.70;99.90;;;;;;2089660;28;20262;-69
2021/12/10 04:02:57;;;;;;;9.73;4.85;;;-2.70;99.90;;;;;;2089318;28;20278;-69
2021/12/10 04:04:01;;;;;;;11.23;5.45;;;-2.70;99.90;;;;;;2089521;28;20194;-69
2021/12/10 04:05:02;;;;;;;10.65;5.50;;;-2.60;99.90;;;;;;2088823;28;20222;-69
2021/12/10 04:06:04;;;;;;;11.73;5.55;;;-2.60;99.90;;;;;;2080606;28;20281;-69
2021/12/10 04:07:11;;;;;;;11.68;5.47;;;-2.60;99.90;;;;;;2088759;28;20813;-69
2021/12/10 04:08:12;;;;;;;9.00;5.05;;;-2.60;99.90;;;;;;2088989;28;20195;-69
2021/12/10 04:09:14;;;;;;;8.50;4.67;;;-2.60;99.90;;;;;;2088835;28;20260;-69
2021/12/10 04:10:17;;;;;;;8.23;4.55;;;-2.60;99.90;;;;;;2088654;28;20631;-69
2021/12/10 04:11:20;;;;;;;10.48;4.65;;;-2.60;99.90;;;;;;2088726;28;20186;-69
2021/12/10 04:12:22;;;;;;;7.07;4.30;;;-2.60;99.90;;;;;;2089423;28;20170;-69
2021/12/10 04:13:23;;;;;;;12.50;4.97;;;-2.60;99.90;;;;;;2089455;28;20648;-69
2021/12/10 04:14:25;;;;;;;9.07;4.40;;;-2.60;99.90;;;;;;2088844;28;20183;-69
2021/12/10 04:15:28;;;;;;;7.82;4.35;;;-2.60;99.90;;;;;;2088763;28;20187;-69
2021/12/10 04:16:29;;;;;;;8.65;5.05;;;-2.60;99.90;;;;;;2088728;28;20169;-69
2021/12/10 04:17:30;;;;;;;9.10;4.57;;;-2.50;99.90;;;;;;2088775;28;20233;-69
2021/12/10 04:18:32;;;;;;;9.33;4.87;;;-2.50;99.90;;;;;;2088945;28;20556;-69
2021/12/10 04:19:36;;;;;;;8.80;4.50;;;-2.60;99.90;;;;;;2088813;28;20187;-69
2021/12/10 04:20:38;;;;;;;8.07;4.97;;;-2.50;99.90;;;;;;2088652;28;20607;-69
2021/12/10 04:21:41;;;;;;;9.75;4.32;;;-2.60;99.90;;;;;;2088816;28;20183;-69
2021/12/10 04:22:46;;;;;;;8.10;4.70;;;-2.50;99.90;;;;;;2088818;28;20186;-69
2021/12/10 04:23:48;;;;;;;8.65;5.10;;;-2.50;99.90;;;;;;2088808;28;20330;-69
2021/12/10 04:24:50;;;;;;;9.73;5.18;;;-2.50;99.90;;;;;;2081177;28;20192;-69
2021/12/10 04:25:51;;;;;;;7.82;4.47;;;-2.50;99.90;;;;;;2088711;28;20184;-70
2021/12/10 04:26:52;;;;;;;8.50;5.50;;;-2.60;99.90;;;;;;2088919;28;20229;-69
2021/12/10 04:27:59;;;;;;;12.40;5.75;;;-2.50;99.90;;;;;;2088758;28;20222;-69
2021/12/10 04:29:00;;;;;;;9.55;5.82;;;-2.50;99.90;;;;;;2089594;28;20172;-69
2021/12/10 04:30:02;;;;;;;8.70;5.27;;;-2.50;99.90;;;;;;2089056;28;20195;-69
2021/12/10 04:31:03;;;;;;;10.07;5.55;;;-2.50;99.90;;;;;;2088960;28;20192;-69
2021/12/10 04:32:07;;;;;;;15.20;5.03;;;-2.50;99.90;;;;;;2089250;28;20186;-69
2021/12/10 04:33:12;;;;;;;8.90;4.57;;;-2.50;99.90;;;;;;2089414;28;20233;-68
2021/12/10 04:34:13;;;;;;;7.80;5.20;;;-2.50;99.90;;;;;;2089507;28;20182;-69
2021/12/10 04:35:18;;;;;;;8.90;5.22;;;-2.50;99.90;;;;;;2088773;28;20213;-68
2021/12/10 04:36:18;;;;;;;9.63;5.63;;;-2.50;99.90;;;;;;2080822;28;20184;-68
2021/12/10 04:37:20;;;;;;;12.60;4.83;;;-2.50;99.90;;;;;;2088693;28;20191;-68
2021/12/10 04:38:22;;;;;;;7.20;4.68;;;-2.50;99.90;;;;;;2096930;28;20178;-69
2021/12/10 04:39:23;;;;;;;10.70;4.88;;;-2.50;99.90;;;;;;2096918;28;20669;-69
2021/12/10 04:40:24;;;;;;;8.30;4.45;;;-2.50;99.90;;;;;;2089180;28;20187;-68
2021/12/10 04:41:25;;;;;;;8.57;5.53;;;-2.50;99.90;;;;;;2089244;28;20190;-69
2021/12/10 04:42:26;;;;;;;7.22;5.03;;;-2.50;99.90;;;;;;2090204;28;20654;-69
2021/12/10 04:43:29;;;;;;;9.30;5.23;;;-2.50;99.90;;;;;;2090337;28;20186;-69
2021/12/10 04:44:30;;;;;;;9.18;5.35;;;-2.50;99.90;;;;;;2082286;28;20242;-68
2021/12/10 04:45:30;;;;;;;7.27;5.20;;;-2.50;99.90;;;;;;2081997;28;20225;-69
2021/12/10 04:46:33;;;;;;;11.27;4.90;;;-2.50;99.90;;;;;;2081914;28;20189;-68
2021/12/10 04:47:34;;;;;;;9.50;5.38;;;-2.50;99.90;;;;;;2081892;28;20208;-68
2021/12/10 04:48:57;;;;;;;7.57;4.88;;;-2.50;99.90;;;;;;2081981;28;20191;-68
2021/12/10 04:49:58;;;;;;;9.80;4.60;;;-2.50;99.90;;;;;;2090323;28;20171;-69
2021/12/10 04:50:58;;;;;;;7.33;4.53;;;-2.50;99.90;;;;;;2090916;28;20183;-68
2021/12/10 04:52:00;;;;;;;9.80;5.50;;;-2.50;99.90;;;;;;2090792;28;20547;-69
2021/12/10 04:53:01;;;;;;;8.43;4.75;;;-2.50;99.90;;;;;;2090663;28;20174;-68
2021/12/10 04:54:05;;;;;;;11.70;5.28;;;-2.40;99.90;;;;;;2090218;28;20269;-69
2021/12/10 04:55:10;;;;;;;7.45;4.28;;;-2.40;99.90;;;;;;2082162;28;20199;-69
2021/12/10 04:56:11;;;;;;;11.57;5.43;;;-2.40;99.90;;;;;;2082491;28;20184;-69
2021/12/10 04:57:12;;;;;;;7.80;4.77;;;-2.40;99.90;;;;;;2090093;28;20179;-69
2021/12/10 04:58:13;;;;;;;7.30;4.35;;;-2.40;99.90;;;;;;2090637;28;20172;-69
2021/12/10 04:59:17;;;;;;;8.83;4.87;;;-2.40;99.90;;;;;;2090653;28;20207;-68
2021/12/10 05:00:29;;;;;;;11.43;5.25;;;-2.40;99.90;;;;;;2090052;28;20190;-68
2021/12/10 05:01:31;;;;;;;8.05;5.20;;;-2.40;99.90;;;;;;2090276;28;20171;-69
2021/12/10 05:02:33;;;;;;;8.15;4.35;;;-2.40;99.90;;;;;;2090186;28;20222;-68
2021/12/10 05:03:34;;;;;;;7.85;4.15;;;-2.40;99.90;;;;;;2081871;28;20199;-68
2021/12/10 05:04:35;;;;;;;12.40;4.90;;;-2.40;99.90;;;;;;2081994;28;20176;-69
2021/12/10 05:05:38;;;;;;;9.10;4.22;;;-2.40;99.90;;;;;;2081868;28;20586;-68
2021/12/10 05:06:40;;;;;;;9.70;4.47;;;-2.40;99.90;;;;;;2081967;28;20234;-68
2021/12/10 05:07:41;;;;;;;7.88;4.20;;;-2.40;99.90;;;;;;2081798;28;20285;-69
2021/12/10 05:08:42;;;;;;;8.50;4.90;;;-2.30;99.90;;;;;;2089953;28;20191;-69
2021/12/10 05:09:43;;;;;;;9.13;4.87;;;-2.30;99.90;;;;;;2090707;28;20811;-69
2021/12/10 05:10:44;;;;;;;9.38;4.70;;;-2.30;99.90;;;;;;2090722;28;20206;-69
2021/12/10 05:11:45;;;;;;;8.13;5.00;;;-2.30;99.90;;;;;;2090669;28;20183;-68
2021/12/10 05:12:47;;;;;;;8.07;4.72;;;-2.30;99.90;;;;;;2090747;28;20558;-69
2021/12/10 05:13:48;;;;;;;9.90;5.10;;;-2.30;99.90;;;;;;2090560;28;20297;-69
2021/12/10 05:14:52;;;;;;;8.55;4.70;;;-2.30;99.90;;;;;;2090096;28;20182;-69
2021/12/10 05:15:58;;;;;;;9.52;4.85;;;-2.30;99.90;;;;;;2082265;28;20263;-69
2021/12/10 05:17:03;;;;;;;6.38;4.00;;;-2.30;99.90;;;;;;2090208;28;20171;-69
2021/12/10 05:18:08;;;;;;;11.05;4.20;;;-2.30;99.90;;;;;;2090727;28;20541;-68
2021/12/10 05:19:12;;;;;;;6.93;4.40;;;-2.30;99.90;;;;;;2090570;28;20183;-69
2021/12/10 05:20:20;;;;;;;10.20;5.00;;;-2.30;99.90;;;;;;2090505;28;20184;-69
2021/12/10 05:21:20;;;;;;;8.98;4.90;;;-2.30;99.90;;;;;;2090837;28;20159;-69
2021/12/10 05:22:21;;;;;;;7.80;4.33;;;-2.30;99.90;;;;;;2090592;28;20178;-69
2021/12/10 05:23:22;;;;;;;9.48;4.38;;;-2.30;99.90;;;;;;2090102;28;20203;-69
2021/12/10 05:24:23;;;;;;;7.27;4.37;;;-2.30;99.90;;;;;;2089402;28;20180;-68
2021/12/10 05:25:27;;;;;;;6.33;4.17;;;-2.40;99.90;;;;;;2090499;28;20325;-68
2021/12/10 05:26:28;;;;;;;8.95;4.25;;;-2.30;99.90;;;;;;2090446;28;20177;-68
2021/12/10 05:27:29;;;;;;;9.20;4.18;;;-2.30;99.90;;;;;;2090436;28;20683;-69
2021/12/10 05:28:30;;;;;;;7.93;4.07;;;-2.30;99.90;;;;;;2090602;28;20178;-69
2021/12/10 05:29:31;;;;;;;11.00;4.38;;;-2.30;99.90;;;;;;2089831;28;20645;-68
2021/12/10 05:30:32;;;;;;;6.80;4.57;;;-2.30;99.90;;;;;;2089492;28;20233;-68
2021/12/10 05:31:36;;;;;;;7.63;4.03;;;-2.30;99.90;;;;;;2090333;28;20240;-68
2021/12/10 05:32:36;;;;;;;7.68;4.55;;;-2.20;99.90;;;;;;2090341;28;20186;-69
2021/12/10 05:33:37;;;;;;;8.90;4.60;;;-2.20;99.90;;;;;;2089949;28;20183;-69
2021/12/10 05:34:40;;;;;;;11.50;3.80;;;-2.20;99.90;;;;;;2089898;28;20171;-69
2021/12/10 05:35:41;;;;;;;8.73;3.95;;;-2.30;99.90;;;;;;2091261;28;20202;-68
2021/12/10 05:36:43;;;;;;;5.85;4.00;;;-2.20;99.90;;;;;;2091043;28;20607;-69
2021/12/10 05:37:43;;;;;;;6.28;4.35;;;-2.30;99.90;;;;;;2083287;28;20195;-69
2021/12/10 05:38:44;;;;;;;9.17;4.67;;;-2.20;99.90;;;;;;2090501;28;20314;-68
2021/12/10 05:39:44;;;;;;;7.80;4.47;;;-2.20;99.90;;;;;;2090699;28;20690;-68
2021/12/10 05:40:48;;;;;;;8.50;4.57;;;-2.20;99.90;;;;;;2090539;28;20670;-69
2021/12/10 05:41:51;;;;;;;7.70;4.88;;;-2.20;99.90;;;;;;2090111;28;20183;-69